createdAt,value
2016-06-01T00:00:01.944Z,13.6
2016-06-01T00:01:01.791Z,13.64
2016-06-01T00:02:01.950Z,13.61
2016-06-01T00:03:01.937Z,13.65
2016-06-01T00:04:01.955Z,13.62
2016-06-01T00:05:01.942Z,13.67
2016-06-01T00:06:01.944Z,13.7
2016-06-01T00:07:01.947Z,13.65
2016-06-01T00:08:01.950Z,13.68
2016-06-01T00:09:01.952Z,13.65
2016-06-01T00:10:01.977Z,13.65
2016-06-01T00:11:01.991Z,13.61
2016-06-01T00:12:02.019Z,13.65
2016-06-01T00:13:01.908Z,13.61
2016-06-01T00:14:02.077Z,13.7
2016-06-01T00:15:02.093Z,13.71
2016-06-01T00:16:02.104Z,13.71
2016-06-01T00:17:02.117Z,13.73
2016-06-01T00:18:02.129Z,13.68
2016-06-01T00:19:02.156Z,13.76
2016-06-01T00:20:02.149Z,13.76
2016-06-01T00:21:02.155Z,13.8
2016-06-01T00:22:02.161Z,13.67
2016-06-01T00:23:02.167Z,13.67
2016-06-01T00:24:03.189Z,13.65
2016-06-01T00:25:02.161Z,13.65
2016-06-01T00:26:02.165Z,13.65
2016-06-01T00:27:01.997Z,13.58
2016-06-01T00:28:02.001Z,13.61
2016-06-01T00:29:02.162Z,13.62
2016-06-01T00:30:02.165Z,13.65
2016-06-01T00:31:02.168Z,13.62
2016-06-01T00:32:02.171Z,13.65
2016-06-01T00:33:02.017Z,13.65
2016-06-01T00:34:02.177Z,13.68
2016-06-01T00:35:02.195Z,13.61
2016-06-01T00:36:02.183Z,13.54
2016-06-01T00:37:02.170Z,13.62
2016-06-01T00:38:02.172Z,13.6
2016-06-01T00:39:02.175Z,13.6
2016-06-01T00:40:02.022Z,13.6
2016-06-01T00:41:01.868Z,13.55
2016-06-01T00:42:02.199Z,13.57
2016-06-01T00:43:02.186Z,13.52
2016-06-01T00:44:02.172Z,13.58
2016-06-01T00:45:02.191Z,13.54
2016-06-01T00:46:02.194Z,13.52
2016-06-01T00:47:02.196Z,13.57
2016-06-01T00:48:02.183Z,13.55
2016-06-01T00:49:02.030Z,13.6
2016-06-01T00:50:02.033Z,13.58
2016-06-01T00:51:02.051Z,13.62
2016-06-01T00:52:02.194Z,13.62
2016-06-01T00:53:02.182Z,13.67
2016-06-01T00:54:02.059Z,13.64
2016-06-01T00:55:02.187Z,13.68
2016-06-01T00:56:02.190Z,13.64
2016-06-01T00:57:02.192Z,13.64
2016-06-01T00:58:02.195Z,13.65
2016-06-01T00:59:02.198Z,13.65
2016-06-01T01:00:02.200Z,13.65
2016-06-01T01:01:02.187Z,13.7
2016-06-01T01:02:02.190Z,13.73
2016-06-01T01:03:02.037Z,13.67
2016-06-01T01:04:02.195Z,13.61
2016-06-01T01:05:02.198Z,13.75
2016-06-01T01:06:02.044Z,13.68
2016-06-01T01:07:02.203Z,13.61
2016-06-01T01:08:02.222Z,13.67
2016-06-01T01:09:02.662Z,13.6
2016-06-01T01:10:02.195Z,13.58
2016-06-01T01:11:02.198Z,13.58
2016-06-01T01:12:02.201Z,13.55
2016-06-01T01:13:02.203Z,13.58
2016-06-01T01:14:02.206Z,13.55
2016-06-01T01:15:02.053Z,13.58
2016-06-01T01:16:02.197Z,13.58
2016-06-01T01:17:02.214Z,13.55
2016-06-01T01:18:02.202Z,13.62
2016-06-01T01:19:02.204Z,13.54
2016-06-01T01:20:02.207Z,13.58
2016-06-01T01:21:02.210Z,13.55
2016-06-01T01:22:02.213Z,13.61
2016-06-01T01:23:02.215Z,13.55
2016-06-01T01:24:02.218Z,13.64
2016-06-01T01:25:02.221Z,13.62
2016-06-01T01:26:02.051Z,13.61
2016-06-01T01:27:02.210Z,13.68
2016-06-01T01:28:02.213Z,13.61
2016-06-01T01:29:02.216Z,13.67
2016-06-01T01:30:02.218Z,13.65
2016-06-01T01:31:02.205Z,13.65
2016-06-01T01:32:02.208Z,13.65
2016-06-01T01:33:02.211Z,13.65
2016-06-01T01:34:02.229Z,13.64
2016-06-01T01:35:02.247Z,13.64
2016-06-01T01:36:02.219Z,13.64
2016-06-01T01:37:02.065Z,13.65
2016-06-01T01:38:02.225Z,13.57
2016-06-01T01:39:02.711Z,13.64
2016-06-01T01:40:02.073Z,13.67
2016-06-01T01:41:02.060Z,13.61
2016-06-01T01:42:02.219Z,13.61
2016-06-01T01:43:02.066Z,13.61
2016-06-01T01:44:02.241Z,13.65
2016-06-01T01:45:02.071Z,13.64
2016-06-01T01:46:02.230Z,13.52
2016-06-01T01:47:02.217Z,13.58
2016-06-01T01:48:02.220Z,13.64
2016-06-01T01:49:02.222Z,13.6
2016-06-01T01:50:02.241Z,13.64
2016-06-01T01:51:02.228Z,13.57
2016-06-01T01:52:02.230Z,13.55
2016-06-01T01:53:02.233Z,13.61
2016-06-01T01:54:02.313Z,13.62
2016-06-01T01:55:02.223Z,13.58
2016-06-01T01:56:02.226Z,13.54
2016-06-01T01:57:02.229Z,13.62
2016-06-01T01:58:02.231Z,13.58
2016-06-01T01:59:02.234Z,13.61
2016-06-01T02:00:02.080Z,13.65
2016-06-01T02:01:02.239Z,13.64
2016-06-01T02:02:02.242Z,13.62
2016-06-01T02:03:02.244Z,13.61
2016-06-01T02:04:02.248Z,13.64
2016-06-01T02:05:02.250Z,13.61
2016-06-01T02:06:02.253Z,13.61
2016-06-01T02:07:02.240Z,13.58
2016-06-01T02:08:02.242Z,13.64
2016-06-01T02:09:02.447Z,13.62
2016-06-01T02:10:02.232Z,13.62
2016-06-01T02:11:01.938Z,13.64
2016-06-01T02:12:02.237Z,13.61
2016-06-01T02:13:02.240Z,13.61
2016-06-01T02:14:02.086Z,13.6
2016-06-01T02:15:02.089Z,13.68
2016-06-01T02:16:02.248Z,13.61
2016-06-01T02:17:02.251Z,13.65
2016-06-01T02:18:02.253Z,13.67
2016-06-01T02:19:02.256Z,13.65
2016-06-01T02:20:02.258Z,13.68
2016-06-01T02:21:02.261Z,13.61
2016-06-01T02:22:02.264Z,13.65
2016-06-01T02:23:02.110Z,13.67
2016-06-01T02:24:02.286Z,13.61
2016-06-01T02:25:02.257Z,13.65
2016-06-01T02:26:02.259Z,13.65
2016-06-01T02:27:02.262Z,13.68
2016-06-01T02:28:02.265Z,13.68
2016-06-01T02:29:02.251Z,13.71
2016-06-01T02:30:01.958Z,13.73
2016-06-01T02:31:02.274Z,13.73
2016-06-01T02:32:02.244Z,13.79
2016-06-01T02:33:02.107Z,13.75
2016-06-01T02:34:02.250Z,13.71
2016-06-01T02:35:02.253Z,13.7
2016-06-01T02:36:02.256Z,13.68
2016-06-01T02:37:02.101Z,13.62
2016-06-01T02:38:02.260Z,13.62
2016-06-01T02:39:02.106Z,13.64
2016-06-01T02:40:02.109Z,13.68
2016-06-01T02:41:02.253Z,13.68
2016-06-01T02:42:02.272Z,13.6
2016-06-01T02:43:02.275Z,13.64
2016-06-01T02:44:02.261Z,13.61
2016-06-01T02:45:02.107Z,13.62
2016-06-01T02:46:02.282Z,13.55
2016-06-01T02:47:02.113Z,13.65
2016-06-01T02:48:02.319Z,13.64
2016-06-01T02:49:02.119Z,13.65
2016-06-01T02:50:02.261Z,13.67
2016-06-01T02:51:02.263Z,13.67
2016-06-01T02:52:02.266Z,13.64
2016-06-01T02:53:02.270Z,13.65
2016-06-01T02:54:02.475Z,13.71
2016-06-01T02:55:02.260Z,13.61
2016-06-01T02:56:02.294Z,13.65
2016-06-01T02:57:02.358Z,13.68
2016-06-01T02:58:02.267Z,13.62
2016-06-01T02:59:02.271Z,13.67
2016-06-01T03:00:02.273Z,13.71
2016-06-01T03:01:02.276Z,13.64
2016-06-01T03:02:02.279Z,13.7
2016-06-01T03:03:02.281Z,13.61
2016-06-01T03:04:02.283Z,13.68
2016-06-01T03:05:02.287Z,13.68
2016-06-01T03:06:02.273Z,13.75
2016-06-01T03:07:02.292Z,13.71
2016-06-01T03:08:02.295Z,13.73
2016-06-01T03:09:02.953Z,13.68
2016-06-01T03:10:02.284Z,13.71
2016-06-01T03:11:01.974Z,13.68
2016-06-01T03:12:02.274Z,13.79
2016-06-01T03:13:02.120Z,13.78
2016-06-01T03:14:02.279Z,13.71
2016-06-01T03:15:02.297Z,13.7
2016-06-01T03:16:02.284Z,13.71
2016-06-01T03:17:02.287Z,13.75
2016-06-01T03:18:02.134Z,13.71
2016-06-01T03:19:02.292Z,13.71
2016-06-01T03:20:01.983Z,13.76
2016-06-01T03:21:02.298Z,13.71
2016-06-01T03:22:02.144Z,13.73
2016-06-01T03:23:02.303Z,13.7
2016-06-01T03:24:03.275Z,13.67
2016-06-01T03:25:02.169Z,13.68
2016-06-01T03:26:02.155Z,13.67
2016-06-01T03:27:02.299Z,13.7
2016-06-01T03:28:02.302Z,13.76
2016-06-01T03:29:02.304Z,13.75
2016-06-01T03:30:02.307Z,13.78
2016-06-01T03:31:02.310Z,13.78
2016-06-01T03:32:02.313Z,13.78
2016-06-01T03:33:02.299Z,13.67
2016-06-01T03:34:02.317Z,13.7
2016-06-01T03:35:02.304Z,13.7
2016-06-01T03:36:02.292Z,13.75
2016-06-01T03:37:02.295Z,13.73
2016-06-01T03:38:02.298Z,13.68
2016-06-01T03:39:02.612Z,13.75
2016-06-01T03:40:02.145Z,13.67
2016-06-01T03:41:02.305Z,13.78
2016-06-01T03:42:01.995Z,13.8
2016-06-01T03:43:02.311Z,13.8
2016-06-01T03:44:02.314Z,13.83
2016-06-01T03:45:02.317Z,13.82
2016-06-01T03:46:02.161Z,13.76
2016-06-01T03:47:02.321Z,13.83
2016-06-01T03:48:02.308Z,13.83
2016-06-01T03:49:02.327Z,13.83
2016-06-01T03:50:02.157Z,13.93
2016-06-01T03:51:02.317Z,13.95
2016-06-01T03:52:02.334Z,13.86
2016-06-01T03:53:02.306Z,13.98
2016-06-01T03:54:02.387Z,13.89
2016-06-01T03:55:02.311Z,13.95
2016-06-01T03:56:02.314Z,13.86
2016-06-01T03:57:02.317Z,13.87
2016-06-01T03:58:02.163Z,13.94
2016-06-01T03:59:02.307Z,13.98
2016-06-01T04:00:02.309Z,13.98
2016-06-01T04:01:02.155Z,13.97
2016-06-01T04:02:02.315Z,13.97
2016-06-01T04:03:02.161Z,13.86
2016-06-01T04:04:02.321Z,13.86
2016-06-01T04:05:02.322Z,13.86
2016-06-01T04:06:02.169Z,13.86
2016-06-01T04:07:02.329Z,13.82
2016-06-01T04:08:02.174Z,13.83
2016-06-01T04:09:02.615Z,13.94
2016-06-01T04:10:02.337Z,13.89
2016-06-01T04:11:02.323Z,13.86
2016-06-01T04:12:02.170Z,13.85
2016-06-01T04:13:02.173Z,13.97
2016-06-01T04:14:02.331Z,13.94
2016-06-01T04:15:02.178Z,14.01
2016-06-01T04:16:02.181Z,14
2016-06-01T04:17:02.323Z,13.98
2016-06-01T04:18:02.326Z,13.98
2016-06-01T04:19:02.032Z,13.98
2016-06-01T04:20:02.332Z,14
2016-06-01T04:21:02.178Z,13.98
2016-06-01T04:22:02.337Z,13.95
2016-06-01T04:23:02.183Z,14.01
2016-06-01T04:24:02.342Z,13.97
2016-06-01T04:25:02.188Z,14.03
2016-06-01T04:26:02.333Z,14
2016-06-01T04:27:02.335Z,13.97
2016-06-01T04:28:02.338Z,13.98
2016-06-01T04:29:02.324Z,13.98
2016-06-01T04:30:02.344Z,13.97
2016-06-01T04:31:02.345Z,13.95
2016-06-01T04:32:02.349Z,13.98
2016-06-01T04:33:02.335Z,14.05
2016-06-01T04:34:02.338Z,14.01
2016-06-01T04:35:02.341Z,14.01
2016-06-01T04:36:02.187Z,14.05
2016-06-01T04:37:02.331Z,14.07
2016-06-01T04:38:02.193Z,14.07
2016-06-01T04:39:02.399Z,14.04
2016-06-01T04:40:02.354Z,14.05
2016-06-01T04:41:02.342Z,14.11
2016-06-01T04:42:02.187Z,14.08
2016-06-01T04:43:02.347Z,14.11
2016-06-01T04:44:02.193Z,14.15
2016-06-01T04:45:02.336Z,14.11
2016-06-01T04:46:02.198Z,14.16
2016-06-01T04:47:02.201Z,14.12
2016-06-01T04:48:02.360Z,14.16
2016-06-01T04:49:02.348Z,14.13
2016-06-01T04:50:02.350Z,14.23
2016-06-01T04:51:02.352Z,14.23
2016-06-01T04:52:02.340Z,14.18
2016-06-01T04:53:02.374Z,14.2
2016-06-01T04:54:02.407Z,14.23
2016-06-01T04:55:02.208Z,14.23
2016-06-01T04:56:02.382Z,14.2
2016-06-01T04:57:02.369Z,14.2
2016-06-01T04:58:02.371Z,14.2
2016-06-01T04:59:02.359Z,14.25
2016-06-01T05:00:02.205Z,14.2
2016-06-01T05:01:02.364Z,14.28
2016-06-01T05:02:02.210Z,14.2
2016-06-01T05:03:02.369Z,14.23
2016-06-01T05:04:02.372Z,14.2
2016-06-01T05:05:02.218Z,14.28
2016-06-01T05:06:02.362Z,14.26
2016-06-01T05:07:02.365Z,14.25
2016-06-01T05:08:02.368Z,14.3
2016-06-01T05:09:02.371Z,14.26
2016-06-01T05:10:02.216Z,14.25
2016-06-01T05:11:02.375Z,14.26
2016-06-01T05:12:02.378Z,14.23
2016-06-01T05:13:02.365Z,14.23
2016-06-01T05:14:02.211Z,14.2
2016-06-01T05:15:02.370Z,14.25
2016-06-01T05:16:02.373Z,14.2
2016-06-01T05:17:02.392Z,14.19
2016-06-01T05:18:02.378Z,14.25
2016-06-01T05:19:02.381Z,14.3
2016-06-01T05:20:02.228Z,14.3
2016-06-01T05:21:02.371Z,14.33
2016-06-01T05:22:02.373Z,14.26
2016-06-01T05:23:02.219Z,14.28
2016-06-01T05:24:02.239Z,14.23
2016-06-01T05:25:02.225Z,14.31
2016-06-01T05:26:02.384Z,14.34
2016-06-01T05:27:02.372Z,14.33
2016-06-01T05:28:02.374Z,14.41
2016-06-01T05:29:02.392Z,14.41
2016-06-01T05:30:02.380Z,14.4
2016-06-01T05:31:02.366Z,14.38
2016-06-01T05:32:02.369Z,14.45
2016-06-01T05:33:02.388Z,14.49
2016-06-01T05:34:02.390Z,14.45
2016-06-01T05:35:02.393Z,14.53
2016-06-01T05:36:02.396Z,14.52
2016-06-01T05:37:02.399Z,14.62
2016-06-01T05:38:02.245Z,14.66
2016-06-01T05:39:02.404Z,14.67
2016-06-01T05:40:02.390Z,14.71
2016-06-01T05:41:02.393Z,14.68
2016-06-01T05:42:02.396Z,14.71
2016-06-01T05:43:02.383Z,14.56
2016-06-01T05:44:02.229Z,14.61
2016-06-01T05:45:02.404Z,14.61
2016-06-01T05:46:02.392Z,14.62
2016-06-01T05:47:02.394Z,14.63
2016-06-01T05:48:02.397Z,14.61
2016-06-01T05:49:02.400Z,14.56
2016-06-01T05:50:02.387Z,14.62
2016-06-01T05:51:02.389Z,14.67
2016-06-01T05:52:02.392Z,14.51
2016-06-01T05:53:02.238Z,14.59
2016-06-01T05:54:02.803Z,14.52
2016-06-01T05:55:02.400Z,14.52
2016-06-01T05:56:02.247Z,14.62
2016-06-01T05:57:02.405Z,14.61
2016-06-01T05:58:02.408Z,14.61
2016-06-01T05:59:02.395Z,14.68
2016-06-01T06:00:02.414Z,14.7
2016-06-01T06:01:02.400Z,14.74
2016-06-01T06:02:02.263Z,14.74
2016-06-01T06:03:02.406Z,14.79
2016-06-01T06:04:02.408Z,14.87
2016-06-01T06:05:02.410Z,14.78
2016-06-01T06:06:02.273Z,14.92
2016-06-01T06:07:02.416Z,15
2016-06-01T06:08:02.419Z,15.12
2016-06-01T06:09:02.421Z,15.04
2016-06-01T06:10:02.268Z,15.05
2016-06-01T06:11:02.412Z,15.08
2016-06-01T06:12:02.258Z,15.25
2016-06-01T06:13:02.418Z,15.35
2016-06-01T06:14:02.420Z,15.41
2016-06-01T06:15:02.437Z,15.35
2016-06-01T06:16:02.425Z,15.45
2016-06-01T06:17:02.428Z,15.55
2016-06-01T06:18:02.273Z,15.6
2016-06-01T06:19:02.417Z,15.6
2016-06-01T06:20:02.420Z,15.66
2016-06-01T06:21:02.438Z,15.8
2016-06-01T06:22:02.425Z,15.78
2016-06-01T06:23:02.288Z,15.92
2016-06-01T06:24:03.587Z,16
2016-06-01T06:25:02.434Z,16.13
2016-06-01T06:26:02.420Z,16.16
2016-06-01T06:27:02.455Z,16.28
2016-06-01T06:28:02.441Z,16.4
2016-06-01T06:29:02.273Z,16.55
2016-06-01T06:30:02.431Z,16.5
2016-06-01T06:31:02.433Z,16.61
2016-06-01T06:32:02.436Z,16.69
2016-06-01T06:33:02.439Z,16.69
2016-06-01T06:34:02.442Z,16.74
2016-06-01T06:35:02.274Z,16.82
2016-06-01T06:36:02.447Z,16.91
2016-06-01T06:37:02.294Z,17.02
2016-06-01T06:38:02.452Z,17.17
2016-06-01T06:39:03.034Z,17.09
2016-06-01T06:40:02.458Z,17.35
2016-06-01T06:41:02.162Z,17.41
2016-06-01T06:42:02.449Z,17.44
2016-06-01T06:43:02.451Z,17.68
2016-06-01T06:44:02.295Z,17.63
2016-06-01T06:45:02.438Z,17.72
2016-06-01T06:46:02.440Z,17.78
2016-06-01T06:47:02.443Z,17.91
2016-06-01T06:48:02.462Z,17.98
2016-06-01T06:49:02.308Z,18
2016-06-01T06:50:02.451Z,18.12
2016-06-01T06:51:02.485Z,18.12
2016-06-01T06:52:02.457Z,18.12
2016-06-01T06:53:02.459Z,18.09
2016-06-01T06:54:02.633Z,18.12
2016-06-01T06:55:02.480Z,18.13
2016-06-01T06:56:02.483Z,18.11
2016-06-01T06:57:02.470Z,18.13
2016-06-01T06:58:02.458Z,18.09
2016-06-01T06:59:02.461Z,18.11
2016-06-01T07:00:02.463Z,18.15
2016-06-01T07:01:02.480Z,18.13
2016-06-01T07:02:02.483Z,18.08
2016-06-01T07:03:02.471Z,18.09
2016-06-01T07:04:02.474Z,18.08
2016-06-01T07:05:02.492Z,18.08
2016-06-01T07:06:02.480Z,18.13
2016-06-01T07:07:02.482Z,18.11
2016-06-01T07:08:02.484Z,18.11
2016-06-01T07:09:02.331Z,18.09
2016-06-01T07:10:02.490Z,18.05
2016-06-01T07:11:02.493Z,17.95
2016-06-01T07:12:02.323Z,17.94
2016-06-01T07:13:02.498Z,17.95
2016-06-01T07:14:02.485Z,17.88
2016-06-01T07:15:02.487Z,17.82
2016-06-01T07:16:02.349Z,17.86
2016-06-01T07:17:02.508Z,17.9
2016-06-01T07:18:02.512Z,17.88
2016-06-01T07:19:02.498Z,17.82
2016-06-01T07:20:02.501Z,17.82
2016-06-01T07:21:02.504Z,17.69
2016-06-01T07:22:02.522Z,17.68
2016-06-01T07:23:02.525Z,17.68
2016-06-01T07:24:02.511Z,17.59
2016-06-01T07:25:02.530Z,17.68
2016-06-01T07:26:02.501Z,17.63
2016-06-01T07:27:02.364Z,17.57
2016-06-01T07:28:02.522Z,17.57
2016-06-01T07:29:02.509Z,17.57
2016-06-01T07:30:02.528Z,17.5
2016-06-01T07:31:02.546Z,17.44
2016-06-01T07:32:02.517Z,17.53
2016-06-01T07:33:02.520Z,17.63
2016-06-01T07:34:02.523Z,17.69
2016-06-01T07:35:02.525Z,17.71
2016-06-01T07:36:02.528Z,17.78
2016-06-01T07:37:02.531Z,17.94
2016-06-01T07:38:02.518Z,17.93
2016-06-01T07:39:02.629Z,18.03
2016-06-01T07:40:02.382Z,18.13
2016-06-01T07:41:02.526Z,18.26
2016-06-01T07:42:02.529Z,18.39
2016-06-01T07:43:02.532Z,18.45
2016-06-01T07:44:02.550Z,18.52
2016-06-01T07:45:02.537Z,18.71
2016-06-01T07:46:02.539Z,18.92
2016-06-01T07:47:02.557Z,19.15
2016-06-01T07:48:02.545Z,19.3
2016-06-01T07:49:02.563Z,19.49
2016-06-01T07:50:02.551Z,19.7
2016-06-01T07:51:02.553Z,19.77
2016-06-01T07:52:02.399Z,19.92
2016-06-01T07:53:02.401Z,20.21
2016-06-01T07:54:02.576Z,20.33
2016-06-01T07:55:02.407Z,20.5
2016-06-01T07:56:02.410Z,20.67
2016-06-01T07:57:02.553Z,21.01
2016-06-01T07:58:02.415Z,21.13
2016-06-01T07:59:02.418Z,21.26
2016-06-01T08:00:02.405Z,21.53
2016-06-01T08:01:02.424Z,21.65
2016-06-01T08:02:02.566Z,21.78
2016-06-01T08:03:02.585Z,22.03
2016-06-01T08:04:02.588Z,22.19
2016-06-01T08:05:02.591Z,22.51
2016-06-01T08:06:02.593Z,22.71
2016-06-01T08:07:02.439Z,22.84
2016-06-01T08:08:02.442Z,23.2
2016-06-01T08:09:03.492Z,23.4
2016-06-01T08:10:02.604Z,23.73
2016-06-01T08:11:02.435Z,23.94
2016-06-01T08:12:02.609Z,24.01
2016-06-01T08:13:02.315Z,24.11
2016-06-01T08:14:02.615Z,24.14
2016-06-01T08:15:02.618Z,24.37
2016-06-01T08:16:02.605Z,24.58
2016-06-01T08:17:02.466Z,24.84
2016-06-01T08:18:02.641Z,25.07
2016-06-01T08:19:02.628Z,25.34
2016-06-01T08:20:02.631Z,25.59
2016-06-01T08:21:02.477Z,25.81
2016-06-01T08:22:02.480Z,25.95
2016-06-01T08:23:02.671Z,25.95
2016-06-01T08:24:02.376Z,25.83
2016-06-01T08:25:02.644Z,25.86
2016-06-01T08:26:02.648Z,25.92
2016-06-01T08:27:02.650Z,26.08
2016-06-01T08:28:02.653Z,26.04
2016-06-01T08:29:02.655Z,26.22
2016-06-01T08:30:02.501Z,26.33
2016-06-01T08:31:02.661Z,26.27
2016-06-01T08:32:02.664Z,26.27
2016-06-01T08:33:02.666Z,26.24
2016-06-01T08:34:02.668Z,26.19
2016-06-01T08:35:02.672Z,26.1
2016-06-01T08:36:02.674Z,26.04
2016-06-01T08:37:02.692Z,25.93
2016-06-01T08:38:02.695Z,25.96
2016-06-01T08:39:03.119Z,25.99
2016-06-01T08:40:02.700Z,26.04
2016-06-01T08:41:02.703Z,26.06
2016-06-01T08:42:02.690Z,26.08
2016-06-01T08:43:02.708Z,26.19
2016-06-01T08:44:02.711Z,26.36
2016-06-01T08:45:02.699Z,26.53
2016-06-01T08:46:02.716Z,26.59
2016-06-01T08:47:02.719Z,26.6
2016-06-01T08:48:02.722Z,26.66
2016-06-01T08:49:02.725Z,26.59
2016-06-01T08:50:02.759Z,26.48
2016-06-01T08:51:02.729Z,26.37
2016-06-01T08:52:02.732Z,26.3
2016-06-01T08:53:02.751Z,26.07
2016-06-01T08:54:02.863Z,26.04
2016-06-01T08:55:02.741Z,25.8
2016-06-01T08:56:02.759Z,25.58
2016-06-01T08:57:02.762Z,25.48
2016-06-01T08:58:02.609Z,25.25
2016-06-01T08:59:02.611Z,25.07
2016-06-01T09:00:02.613Z,24.89
2016-06-01T09:01:02.789Z,24.79
2016-06-01T09:02:02.775Z,24.62
2016-06-01T09:03:02.794Z,24.61
2016-06-01T09:04:02.625Z,24.56
2016-06-01T09:05:02.783Z,24.5
2016-06-01T09:06:02.786Z,24.53
2016-06-01T09:07:02.789Z,24.51
2016-06-01T09:08:02.791Z,24.53
2016-06-01T09:09:03.341Z,24.78
2016-06-01T09:10:02.655Z,24.93
2016-06-01T09:11:02.815Z,25.14
2016-06-01T09:12:02.818Z,25.18
2016-06-01T09:13:02.821Z,25.21
2016-06-01T09:14:02.667Z,25.33
2016-06-01T09:15:02.669Z,25.51
2016-06-01T09:16:02.845Z,25.71
2016-06-01T09:17:02.857Z,25.67
2016-06-01T09:18:02.884Z,25.68
2016-06-01T09:19:02.910Z,25.73
2016-06-01T09:20:02.938Z,25.73
2016-06-01T09:21:02.963Z,25.83
2016-06-01T09:22:02.975Z,25.89
2016-06-01T09:23:03.000Z,26.04
2016-06-01T09:24:03.012Z,26.16
2016-06-01T09:25:03.336Z,26.3
2016-06-01T09:26:03.050Z,26.23
2016-06-01T09:27:03.025Z,26.34
2016-06-01T09:28:03.031Z,26.49
2016-06-01T09:29:03.051Z,26.74
2016-06-01T09:30:03.057Z,27.13
2016-06-01T09:31:03.173Z,27.55
2016-06-01T09:32:03.066Z,28.08
2016-06-01T09:33:03.087Z,28.47
2016-06-01T09:34:03.075Z,28.94
2016-06-01T09:35:03.094Z,29.24
2016-06-01T09:36:03.098Z,29.2
2016-06-01T09:37:03.085Z,29
2016-06-01T09:38:03.104Z,28.92
2016-06-01T09:39:04.044Z,28.84
2016-06-01T09:40:03.094Z,28.56
2016-06-01T09:41:02.941Z,28.5
2016-06-01T09:42:03.132Z,28.27
2016-06-01T09:43:03.120Z,28.27
2016-06-01T09:44:03.122Z,28.33
2016-06-01T09:45:03.125Z,28.33
2016-06-01T09:46:03.143Z,28.16
2016-06-01T09:47:03.146Z,28.06
2016-06-01T09:48:02.978Z,27.95
2016-06-01T09:49:03.137Z,27.81
2016-06-01T09:50:03.154Z,27.66
2016-06-01T09:51:03.157Z,27.61
2016-06-01T09:52:03.145Z,27.4
2016-06-01T09:53:03.163Z,27.19
2016-06-01T09:54:03.165Z,26.96
2016-06-01T09:55:03.621Z,26.74
2016-06-01T09:56:03.187Z,26.46
2016-06-01T09:57:03.173Z,26.39
2016-06-01T09:58:03.176Z,26.23
2016-06-01T09:59:02.882Z,26.24
2016-06-01T10:00:03.181Z,26.15
2016-06-01T10:01:03.200Z,26.13
2016-06-01T10:02:03.219Z,26.1
2016-06-01T10:03:03.206Z,26.13
2016-06-01T10:04:03.224Z,26.1
2016-06-01T10:05:03.210Z,26.06
2016-06-01T10:06:03.230Z,25.91
2016-06-01T10:07:03.232Z,25.73
2016-06-01T10:08:03.219Z,25.59
2016-06-01T10:09:03.596Z,25.46
2016-06-01T10:10:05.005Z,25.37
2016-06-01T10:11:03.227Z,25.34
2016-06-01T10:12:03.246Z,25.33
2016-06-01T10:13:03.249Z,25.36
2016-06-01T10:14:03.251Z,25.36
2016-06-01T10:15:03.253Z,25.33
2016-06-01T10:16:03.241Z,25.52
2016-06-01T10:17:03.243Z,25.74
2016-06-01T10:18:03.261Z,25.95
2016-06-01T10:19:03.107Z,26.07
2016-06-01T10:20:03.267Z,26.08
2016-06-01T10:21:03.285Z,26.15
2016-06-01T10:22:03.287Z,26.29
2016-06-01T10:23:03.243Z,26.34
2016-06-01T10:24:03.465Z,26.44
2016-06-01T10:25:04.562Z,26.46
2016-06-01T10:26:03.299Z,26.64
2016-06-01T10:27:03.301Z,26.78
2016-06-01T10:28:03.147Z,27.07
2016-06-01T10:29:03.306Z,27.33
2016-06-01T10:30:03.325Z,27.44
2016-06-01T10:31:03.156Z,27.63
2016-06-01T10:32:03.314Z,27.83
2016-06-01T10:33:03.177Z,27.94
2016-06-01T10:34:03.336Z,28.09
2016-06-01T10:35:03.339Z,28.12
2016-06-01T10:36:03.341Z,28.06
2016-06-01T10:37:03.360Z,28
2016-06-01T10:38:03.362Z,27.73
2016-06-01T10:39:03.350Z,27.76
2016-06-01T10:40:03.211Z,27.81
2016-06-01T10:41:03.354Z,27.81
2016-06-01T10:42:03.202Z,27.71
2016-06-01T10:43:03.219Z,27.64
2016-06-01T10:44:03.379Z,27.75
2016-06-01T10:45:03.381Z,27.75
2016-06-01T10:46:03.384Z,27.75
2016-06-01T10:47:03.386Z,27.55
2016-06-01T10:48:03.093Z,27.53
2016-06-01T10:49:03.407Z,27.45
2016-06-01T10:50:03.410Z,27.57
2016-06-01T10:51:03.413Z,27.73
2016-06-01T10:52:03.416Z,27.95
2016-06-01T10:53:03.418Z,28.13
2016-06-01T10:54:03.280Z,28.35
2016-06-01T10:55:03.720Z,28.3
2016-06-01T10:56:03.426Z,28.31
2016-06-01T10:57:03.289Z,28.18
2016-06-01T10:58:03.431Z,28.01
2016-06-01T10:59:03.434Z,28.08
2016-06-01T11:00:03.453Z,28.03
2016-06-01T11:01:03.456Z,28.06
2016-06-01T11:02:03.459Z,28.04
2016-06-01T11:03:03.475Z,28.08
2016-06-01T11:04:03.478Z,28.06
2016-06-01T11:05:03.481Z,28.03
2016-06-01T11:06:03.469Z,28
2016-06-01T11:07:03.486Z,28.12
2016-06-01T11:08:03.489Z,27.95
2016-06-01T11:09:03.477Z,27.73
2016-06-01T11:10:03.495Z,27.52
2016-06-01T11:11:03.497Z,27.34
2016-06-01T11:12:03.344Z,27.1
2016-06-01T11:13:03.502Z,27.07
2016-06-01T11:14:03.349Z,26.98
2016-06-01T11:15:03.508Z,26.85
2016-06-01T11:16:03.527Z,26.71
2016-06-01T11:17:03.513Z,26.48
2016-06-01T11:18:03.376Z,26.24
2016-06-01T11:19:03.535Z,26.16
2016-06-01T11:20:03.569Z,25.99
2016-06-01T11:21:03.556Z,25.92
2016-06-01T11:22:03.559Z,25.86
2016-06-01T11:23:03.545Z,25.86
2016-06-01T11:24:03.548Z,25.91
2016-06-01T11:25:03.426Z,25.83
2016-06-01T11:26:03.554Z,25.86
2016-06-01T11:27:03.572Z,25.71
2016-06-01T11:28:03.575Z,25.49
2016-06-01T11:29:03.562Z,25.22
2016-06-01T11:30:03.581Z,25.06
2016-06-01T11:31:03.426Z,25
2016-06-01T11:32:03.569Z,24.88
2016-06-01T11:33:03.588Z,24.78
2016-06-01T11:34:03.591Z,24.89
2016-06-01T11:35:03.609Z,24.97
2016-06-01T11:36:03.612Z,24.96
2016-06-01T11:37:03.615Z,24.99
2016-06-01T11:38:03.633Z,25
2016-06-01T11:39:03.620Z,25
2016-06-01T11:40:04.108Z,24.82
2016-06-01T11:41:03.641Z,24.77
2016-06-01T11:42:03.627Z,24.81
2016-06-01T11:43:03.662Z,24.88
2016-06-01T11:44:03.649Z,24.88
2016-06-01T11:45:03.636Z,24.89
2016-06-01T11:46:03.655Z,25.03
2016-06-01T11:47:03.485Z,24.93
2016-06-01T11:48:03.644Z,25.01
2016-06-01T11:49:03.647Z,25.04
2016-06-01T11:50:03.665Z,25.11
2016-06-01T11:51:03.652Z,25.03
2016-06-01T11:52:03.671Z,25.09
2016-06-01T11:53:03.673Z,25.24
2016-06-01T11:54:03.676Z,25.25
2016-06-01T11:55:03.897Z,25.3
2016-06-01T11:56:03.540Z,25.52
2016-06-01T11:57:03.700Z,25.66
2016-06-01T11:58:03.687Z,25.77
2016-06-01T11:59:03.548Z,25.98
2016-06-01T12:00:03.723Z,26.06
2016-06-01T12:01:03.554Z,25.99
2016-06-01T12:02:03.729Z,26.23
2016-06-01T12:03:03.716Z,26.3
2016-06-01T12:04:03.719Z,26.24
2016-06-01T12:05:03.737Z,26.27
2016-06-01T12:06:03.568Z,26.39
2016-06-01T12:07:03.726Z,26.45
2016-06-01T12:08:03.730Z,26.52
2016-06-01T12:09:03.733Z,26.6
2016-06-01T12:10:04.453Z,26.59
2016-06-01T12:11:03.737Z,26.6
2016-06-01T12:12:03.756Z,26.74
2016-06-01T12:13:03.602Z,26.85
2016-06-01T12:14:03.761Z,26.92
2016-06-01T12:15:03.764Z,26.96
2016-06-01T12:16:03.766Z,27.05
2016-06-01T12:17:03.769Z,27
2016-06-01T12:18:03.771Z,27.15
2016-06-01T12:19:03.634Z,27.07
2016-06-01T12:20:03.652Z,27.04
2016-06-01T12:21:03.795Z,27.1
2016-06-01T12:22:03.798Z,27.22
2016-06-01T12:23:03.660Z,27.3
2016-06-01T12:24:03.804Z,27.3
2016-06-01T12:25:03.821Z,27.47
2016-06-01T12:26:03.809Z,27.57
2016-06-01T12:27:03.812Z,27.67
2016-06-01T12:28:03.814Z,27.75
2016-06-01T12:29:03.833Z,27.81
2016-06-01T12:30:03.820Z,27.83
2016-06-01T12:31:03.837Z,28
2016-06-01T12:32:03.826Z,28.04
2016-06-01T12:33:03.687Z,28.22
2016-06-01T12:34:03.845Z,28.12
2016-06-01T12:35:03.848Z,28.12
2016-06-01T12:36:03.851Z,28.18
2016-06-01T12:37:03.697Z,28.28
2016-06-01T12:38:03.857Z,28.35
2016-06-01T12:39:03.859Z,28.38
2016-06-01T12:40:04.128Z,28.68
2016-06-01T12:41:03.865Z,28.67
2016-06-01T12:42:03.867Z,28.74
2016-06-01T12:43:03.870Z,28.84
2016-06-01T12:44:03.748Z,28.87
2016-06-01T12:45:03.750Z,29
2016-06-01T12:46:03.893Z,29.09
2016-06-01T12:47:03.881Z,29.22
2016-06-01T12:48:03.899Z,29.25
2016-06-01T12:49:03.902Z,29.28
2016-06-01T12:50:03.921Z,29.34
2016-06-01T12:51:03.907Z,29.4
2016-06-01T12:52:03.926Z,29.4
2016-06-01T12:53:03.929Z,29.4
2016-06-01T12:54:03.916Z,29.57
2016-06-01T12:55:03.949Z,29.64
2016-06-01T12:56:03.952Z,29.86